Time;durP1;ratioP1;P1;durP2;ratioP2;P2;SDS_P1;SDS_P2;PMS_P1;PMS_P2;Temp;Humidity;BMP_temperature;BMP_pressure;BME280_temperature;BME280_humidity;BME280_pressure;Samples;Min_cycle;Max_cycle;Signal;HPM_P1;HPM_P2
2021/06/19 00:00:35;;;;;;;6.22;2.78;;;22.90;69.50;;;;;;5015880;28;20036;-40
2021/06/19 00:03:01;;;;;;;4.85;2.65;;;22.90;69.50;;;;;;5015459;28;20385;-40
2021/06/19 00:05:28;;;;;;;8.05;2.50;;;22.90;69.50;;;;;;5015569;28;20168;-40
2021/06/19 00:07:53;;;;;;;5.75;2.60;;;22.90;69.40;;;;;;5015500;28;20052;-40
2021/06/19 00:10:20;;;;;;;2.95;2.42;;;22.90;69.30;;;;;;5015471;28;20117;-41
2021/06/19 00:12:47;;;;;;;4.63;2.67;;;22.90;69.30;;;;;;5015407;28;20036;-41
2021/06/19 00:15:15;;;;;;;4.25;2.58;;;22.90;69.00;;;;;;5015605;28;20030;-40
2021/06/19 00:17:42;;;;;;;6.43;2.40;;;22.90;69.20;;;;;;5014610;28;20030;-41
2021/06/19 00:20:19;;;;;;;3.65;2.22;;;22.90;69.20;;;;;;5016878;28;20097;-41
2021/06/19 00:22:46;;;;;;;3.97;2.08;;;22.80;69.20;;;;;;5018622;28;20034;-41
2021/06/19 00:25:14;;;;;;;3.30;2.80;;;22.80;69.60;;;;;;5019010;28;20076;-40
2021/06/19 00:27:40;;;;;;;3.90;2.30;;;22.80;69.00;;;;;;5018641;28;20418;-42
2021/06/19 00:30:09;;;;;;;4.22;2.58;;;22.70;69.10;;;;;;5018768;28;20036;-40
2021/06/19 00:32:35;;;;;;;3.40;2.33;;;22.70;69.10;;;;;;5018577;28;20422;-41
2021/06/19 00:35:00;;;;;;;5.00;2.75;;;22.70;69.20;;;;;;5018791;28;20041;-40
2021/06/19 00:37:26;;;;;;;6.60;2.80;;;22.70;69.40;;;;;;5018196;28;20389;-40
2021/06/19 00:39:52;;;;;;;6.38;2.63;;;22.70;69.20;;;;;;5018637;28;20022;-41
2021/06/19 00:42:21;;;;;;;3.08;2.35;;;22.60;69.00;;;;;;5018215;28;20025;-41
2021/06/19 00:44:48;;;;;;;5.95;2.40;;;22.70;69.00;;;;;;5018825;28;20116;-42
2021/06/19 00:47:13;;;;;;;4.00;2.63;;;22.60;69.00;;;;;;5018432;28;20030;-41
2021/06/19 00:49:40;;;;;;;5.82;2.80;;;22.60;69.00;;;;;;5018585;28;20334;-41
2021/06/19 00:52:06;;;;;;;10.98;2.80;;;22.60;69.00;;;;;;5018495;28;20032;-40
2021/06/19 00:54:33;;;;;;;5.65;2.72;;;22.60;69.10;;;;;;5018454;28;20034;-40
2021/06/19 00:57:00;;;;;;;7.00;2.30;;;22.50;69.10;;;;;;5018350;28;20417;-40
2021/06/19 00:59:26;;;;;;;3.40;2.60;;;22.50;69.30;;;;;;5018245;28;20036;-41
2021/06/19 01:01:53;;;;;;;5.10;2.17;;;22.50;69.30;;;;;;5018191;28;20033;-41
2021/06/19 01:04:19;;;;;;;3.72;2.53;;;22.50;69.30;;;;;;5017987;28;20239;-40
2021/06/19 01:06:45;;;;;;;8.43;2.53;;;22.50;69.30;;;;;;5033280;28;20033;-40
2021/06/19 01:09:11;;;;;;;6.55;2.70;;;22.40;69.20;;;;;;5018248;28;20110;-42
2021/06/19 01:11:38;;;;;;;2.45;2.13;;;22.40;69.30;;;;;;5017809;28;20426;-42
2021/06/19 01:14:05;;;;;;;3.85;2.40;;;22.40;69.50;;;;;;5018259;28;20034;-40
2021/06/19 01:16:32;;;;;;;4.22;2.60;;;22.40;69.70;;;;;;5017821;28;20029;-40
2021/06/19 01:18:57;;;;;;;6.97;2.65;;;22.40;69.90;;;;;;5018060;28;20041;-40
2021/06/19 01:21:26;;;;;;;4.07;2.53;;;22.40;70.10;;;;;;5017597;28;20315;-40
2021/06/19 01:23:53;;;;;;;2.70;2.20;;;22.40;70.20;;;;;;5017636;28;20022;-40
2021/06/19 01:26:37;;;;;;;5.28;3.33;;;22.30;70.20;;;;;;5018033;28;20030;-40
2021/06/19 01:29:03;;;;;;;4.35;2.25;;;22.40;70.10;;;;;;5017677;28;20088;-41
2021/06/19 01:31:31;;;;;;;2.88;2.58;;;22.30;70.30;;;;;;5016850;28;20038;-40
2021/06/19 01:33:58;;;;;;;6.93;2.40;;;22.30;70.30;;;;;;5017868;28;20030;-41
2021/06/19 01:36:25;;;;;;;5.40;2.30;;;22.30;70.30;;;;;;5017559;28;20062;-40
2021/06/19 01:38:55;;;;;;;4.30;2.60;;;22.30;70.30;;;;;;5017218;28;20053;-40
2021/06/19 01:41:27;;;;;;;5.78;2.40;;;22.30;70.20;;;;;;5017782;28;20345;-41
2021/06/19 01:44:08;;;;;;;4.10;2.60;;;22.30;70.20;;;;;;5032558;28;20511;-41
2021/06/19 01:46:36;;;;;;;5.05;3.15;;;22.30;70.30;;;;;;5017319;28;20088;-40
2021/06/19 01:49:02;;;;;;;3.05;2.53;;;22.20;70.10;;;;;;5017508;28;20036;-40
2021/06/19 01:51:29;;;;;;;7.00;2.75;;;22.20;70.00;;;;;;5017329;28;20057;-40
2021/06/19 01:53:55;;;;;;;6.45;2.53;;;22.20;70.30;;;;;;5017065;28;20056;-41
2021/06/19 01:56:22;;;;;;;5.85;2.63;;;22.20;70.60;;;;;;5017106;28;20038;-41
2021/06/19 01:58:48;;;;;;;4.72;2.33;;;22.20;70.60;;;;;;5016979;28;20113;-41
2021/06/19 02:01:15;;;;;;;4.65;2.70;;;22.20;70.70;;;;;;5017281;28;20147;-40
2021/06/19 02:03:42;;;;;;;6.60;2.80;;;22.20;70.70;;;;;;5016844;28;20037;-40
2021/06/19 02:06:08;;;;;;;5.85;2.72;;;22.10;70.60;;;;;;5017348;28;20030;-40
2021/06/19 02:08:35;;;;;;;8.00;2.70;;;22.10;70.70;;;;;;5016845;28;20307;-40
2021/06/19 02:11:02;;;;;;;6.72;2.70;;;22.10;70.80;;;;;;5017355;28;20471;-40
2021/06/19 02:13:28;;;;;;;8.52;2.65;;;22.10;70.80;;;;;;5016699;28;20052;-41
2021/06/19 02:15:55;;;;;;;5.32;2.70;;;22.10;70.90;;;;;;5017150;28;20117;-40
2021/06/19 02:18:21;;;;;;;5.43;2.63;;;22.10;71.10;;;;;;5016531;28;20410;-40
2021/06/19 02:20:52;;;;;;;7.65;3.00;;;22.10;71.20;;;;;;5016712;28;20056;-41
2021/06/19 02:23:18;;;;;;;3.80;2.63;;;22.10;71.30;;;;;;5016618;28;20037;-40
2021/06/19 02:25:46;;;;;;;3.83;2.60;;;22.00;71.50;;;;;;5032192;28;20422;-40
2021/06/19 02:28:12;;;;;;;3.72;2.67;;;22.00;71.30;;;;;;5016293;28;20037;-41
2021/06/19 02:30:41;;;;;;;3.60;2.70;;;22.00;71.40;;;;;;5016772;28;20177;-41
2021/06/19 02:33:07;;;;;;;9.10;3.10;;;22.00;71.40;;;;;;5016060;28;20113;-41
2021/06/19 02:35:36;;;;;;;4.88;2.83;;;22.00;71.50;;;;;;5016489;28;20076;-40
2021/06/19 02:38:02;;;;;;;7.03;2.83;;;22.00;71.40;;;;;;5016419;28;20021;-40
2021/06/19 02:40:28;;;;;;;5.05;2.72;;;22.00;71.40;;;;;;5016435;28;20034;-40
2021/06/19 02:42:54;;;;;;;5.72;2.70;;;22.00;71.50;;;;;;5015966;28;20030;-40
2021/06/19 02:45:21;;;;;;;3.53;2.38;;;22.00;71.40;;;;;;5016335;28;20034;-40
2021/06/19 02:47:49;;;;;;;5.97;2.80;;;22.00;71.60;;;;;;5015912;28;20061;-39
2021/06/19 02:50:16;;;;;;;3.38;2.50;;;22.00;71.70;;;;;;5016253;28;20112;-39
2021/06/19 02:52:43;;;;;;;6.47;2.75;;;22.00;71.70;;;;;;5015882;28;20034;-40
2021/06/19 02:55:12;;;;;;;5.32;2.78;;;22.00;71.90;;;;;;5016288;28;20041;-41
2021/06/19 02:57:38;;;;;;;5.28;2.53;;;22.00;72.00;;;;;;5016048;28;20410;-39
2021/06/19 03:00:06;;;;;;;3.40;2.33;;;22.00;72.00;;;;;;5016168;28;20053;-40
2021/06/19 03:02:32;;;;;;;4.72;2.83;;;22.00;72.00;;;;;;5015592;28;20422;-40
2021/06/19 03:04:58;;;;;;;8.43;2.60;;;22.00;72.00;;;;;;5016082;28;20037;-41
2021/06/19 03:07:23;;;;;;;9.20;2.95;;;22.00;72.10;;;;;;5015567;28;20034;-40
2021/06/19 03:09:49;;;;;;;4.43;2.72;;;22.00;72.10;;;;;;5015950;28;20036;-40
2021/06/19 03:12:15;;;;;;;5.85;2.85;;;22.00;72.10;;;;;;5016091;28;20034;-40
2021/06/19 03:14:40;;;;;;;7.30;2.80;;;22.00;71.90;;;;;;5015903;28;20057;-39
2021/06/19 03:17:06;;;;;;;8.88;3.13;;;22.00;71.90;;;;;;5015820;28;20030;-40
2021/06/19 03:19:32;;;;;;;5.45;2.67;;;22.00;71.80;;;;;;5016019;28;20042;-40
2021/06/19 03:21:59;;;;;;;4.57;2.75;;;22.00;71.90;;;;;;5016040;28;20030;-39
2021/06/19 03:24:25;;;;;;;5.20;2.53;;;22.00;72.00;;;;;;5016096;28;20026;-41
2021/06/19 03:26:51;;;;;;;6.32;2.85;;;22.00;71.90;;;;;;5015489;28;20136;-40
2021/06/19 03:29:16;;;;;;;6.07;2.85;;;22.10;72.00;;;;;;5015683;28;20105;-39
2021/06/19 03:31:42;;;;;;;3.50;2.50;;;22.00;71.90;;;;;;5015700;28;20113;-39
2021/06/19 03:34:07;;;;;;;8.05;2.70;;;22.00;72.00;;;;;;5016007;28;20069;-40
2021/06/19 03:36:33;;;;;;;4.43;2.70;;;22.00;72.30;;;;;;5015681;28;20326;-39
2021/06/19 03:38:59;;;;;;;7.95;2.72;;;22.10;72.60;;;;;;5015721;28;20430;-40
2021/06/19 03:41:24;;;;;;;6.53;2.88;;;22.10;72.70;;;;;;5015729;28;20041;-41
2021/06/19 03:43:50;;;;;;;4.65;2.72;;;22.10;73.00;;;;;;5015329;28;20030;-40
2021/06/19 03:46:16;;;;;;;5.78;3.00;;;22.20;73.20;;;;;;5015354;28;20128;-40
2021/06/19 03:48:42;;;;;;;6.07;2.60;;;22.20;73.40;;;;;;5015250;28;20104;-40
2021/06/19 03:51:07;;;;;;;7.15;3.15;;;22.30;73.20;;;;;;5015549;28;20072;-42
2021/06/19 03:53:33;;;;;;;5.60;2.90;;;22.30;73.20;;;;;;5015035;28;20501;-40
2021/06/19 03:55:59;;;;;;;7.18;2.55;;;22.40;73.10;;;;;;5018931;28;20050;-40
2021/06/19 03:58:24;;;;;;;4.68;2.90;;;22.40;73.00;;;;;;5018724;28;20026;-41
2021/06/19 04:00:50;;;;;;;8.30;3.25;;;22.50;73.00;;;;;;5019387;28;20030;-41
2021/06/19 04:03:16;;;;;;;8.85;2.70;;;22.50;72.80;;;;;;5019101;28;20057;-41
2021/06/19 04:05:41;;;;;;;7.13;3.17;;;22.60;72.50;;;;;;5019234;28;20402;-39
2021/06/19 04:08:07;;;;;;;6.57;3.25;;;22.70;72.20;;;;;;5018870;28;20080;-40
2021/06/19 04:10:33;;;;;;;5.65;2.97;;;22.80;72.10;;;;;;5018858;28;20030;-40
2021/06/19 04:12:58;;;;;;;5.40;2.70;;;22.90;71.90;;;;;;5018927;28;20029;-39
2021/06/19 04:15:24;;;;;;;4.65;2.50;;;23.00;71.90;;;;;;5017744;28;20050;-40
2021/06/19 04:17:50;;;;;;;8.32;3.70;;;23.00;71.70;;;;;;5018528;28;20045;-40
2021/06/19 04:20:16;;;;;;;5.50;3.25;;;23.10;71.60;;;;;;5018751;28;20116;-41
2021/06/19 04:22:43;;;;;;;6.53;2.85;;;23.10;71.40;;;;;;5018630;28;20034;-39
2021/06/19 04:25:10;;;;;;;3.47;2.38;;;23.10;71.50;;;;;;5019091;28;20057;-40
2021/06/19 04:27:44;;;;;;;10.25;3.20;;;23.20;71.30;;;;;;5018380;28;20037;-41
2021/06/19 04:30:12;;;;;;;9.98;2.95;;;23.20;71.00;;;;;;5018816;28;20022;-39
2021/06/19 04:32:39;;;;;;;7.20;2.70;;;23.20;70.40;;;;;;5018728;28;20068;-39
2021/06/19 04:35:05;;;;;;;3.95;3.15;;;23.20;70.50;;;;;;5018186;28;20030;-39
2021/06/19 04:37:31;;;;;;;10.48;7.07;;;23.20;70.70;;;;;;5018011;28;20484;-39
2021/06/19 04:40:07;;;;;;;17.20;6.03;;;23.20;70.80;;;;;;5018652;28;20026;-41
2021/06/19 04:42:41;;;;;;;12.40;5.03;;;23.20;71.00;;;;;;5018209;28;20030;-40
2021/06/19 04:45:10;;;;;;;20.80;15.93;;;23.30;70.80;;;;;;5018545;28;20030;-41
2021/06/19 04:47:36;;;;;;;22.17;17.73;;;23.40;70.90;;;;;;5018109;28;20333;-41
2021/06/19 04:50:05;;;;;;;18.70;10.77;;;23.40;70.80;;;;;;5018049;28;20069;-39
2021/06/19 04:52:33;;;;;;;12.00;7.30;;;23.40;70.80;;;;;;5017831;28;20176;-40
2021/06/19 04:55:00;;;;;;;10.63;6.55;;;23.50;70.70;;;;;;5018156;28;20034;-40
2021/06/19 04:57:26;;;;;;;9.68;5.68;;;23.50;70.20;;;;;;5017298;28;20021;-41
2021/06/19 04:59:52;;;;;;;5.53;3.70;;;23.50;70.00;;;;;;5018211;28;20120;-41
2021/06/19 05:02:18;;;;;;;6.78;3.33;;;23.60;69.80;;;;;;5017829;28;20029;-39
2021/06/19 05:04:44;;;;;;;13.45;4.78;;;23.60;69.90;;;;;;5018095;28;20101;-39
2021/06/19 05:07:10;;;;;;;24.35;18.77;;;23.60;69.70;;;;;;5016439;28;20080;-45
2021/06/19 05:09:36;;;;;;;6.93;5.47;;;23.60;69.80;;;;;;5017716;28;20025;-39
2021/06/19 05:12:02;;;;;;;13.48;8.63;;;23.60;69.90;;;;;;5017483;28;20117;-41
2021/06/19 05:14:28;;;;;;;21.27;14.52;;;23.60;69.80;;;;;;5017980;28;20092;-39
2021/06/19 05:16:54;;;;;;;12.32;8.02;;;23.70;69.80;;;;;;5017808;28;20095;-41
2021/06/19 05:19:21;;;;;;;9.52;4.55;;;23.70;69.90;;;;;;5017445;28;20369;-42
2021/06/19 05:21:46;;;;;;;8.75;4.00;;;23.70;69.90;;;;;;5017779;28;20314;-39
2021/06/19 05:24:12;;;;;;;19.02;13.38;;;23.70;69.90;;;;;;5017862;28;20051;-41
2021/06/19 05:26:39;;;;;;;11.95;6.45;;;23.70;69.90;;;;;;5017258;28;20042;-41
2021/06/19 05:29:05;;;;;;;9.45;6.05;;;23.80;69.80;;;;;;5017305;28;20022;-39
2021/06/19 05:31:30;;;;;;;8.48;4.70;;;23.80;69.70;;;;;;5016999;28;20045;-40
2021/06/19 05:33:56;;;;;;;5.70;3.47;;;23.80;69.90;;;;;;5017388;28;20030;-41
2021/06/19 05:36:22;;;;;;;11.55;4.78;;;23.80;69.90;;;;;;5017435;28;20429;-41
2021/06/19 05:38:48;;;;;;;8.75;3.83;;;23.80;70.00;;;;;;5016511;28;20026;-39
2021/06/19 05:41:14;;;;;;;7.20;4.63;;;23.80;69.90;;;;;;5017253;28;20426;-41
2021/06/19 05:43:40;;;;;;;13.88;8.20;;;23.80;70.00;;;;;;5016844;28;20050;-40
2021/06/19 05:46:06;;;;;;;22.00;12.48;;;23.90;69.90;;;;;;5017440;28;20037;-40
2021/06/19 05:48:32;;;;;;;9.45;4.90;;;23.90;70.00;;;;;;5016596;28;20361;-42
2021/06/19 05:50:58;;;;;;;12.10;4.40;;;23.90;69.80;;;;;;5017279;28;20038;-40
2021/06/19 05:53:24;;;;;;;6.88;4.38;;;23.90;69.60;;;;;;5016108;28;20022;-41
2021/06/19 05:55:49;;;;;;;9.13;5.70;;;24.00;70.20;;;;;;5017292;28;20065;-40
2021/06/19 05:58:15;;;;;;;10.73;4.30;;;24.00;70.10;;;;;;5016266;28;20411;-41
2021/06/19 06:00:41;;;;;;;9.07;4.10;;;24.00;70.10;;;;;;5017051;28;20061;-41
2021/06/19 06:03:06;;;;;;;9.13;4.50;;;24.00;69.60;;;;;;5016341;28;20026;-41
2021/06/19 06:05:33;;;;;;;5.60;4.57;;;24.10;69.70;;;;;;5017221;28;20041;-42
2021/06/19 06:08:00;;;;;;;6.75;4.38;;;24.10;69.80;;;;;;5016329;28;20472;-40
2021/06/19 06:10:27;;;;;;;6.05;3.97;;;24.10;69.80;;;;;;5016978;28;20068;-41
2021/06/19 06:12:53;;;;;;;6.32;4.85;;;24.10;69.90;;;;;;5016261;28;20101;-42
2021/06/19 06:15:18;;;;;;;13.05;7.93;;;24.20;69.90;;;;;;5016725;28;20148;-40
2021/06/19 06:17:44;;;;;;;15.32;8.00;;;24.30;69.70;;;;;;5015623;28;20375;-39
2021/06/19 06:20:10;;;;;;;9.68;5.68;;;24.30;69.40;;;;;;5016170;28;20041;-39
2021/06/19 06:22:36;;;;;;;11.73;5.50;;;24.30;69.10;;;;;;5015782;28;20057;-40
2021/06/19 06:25:02;;;;;;;8.52;4.57;;;24.30;69.70;;;;;;5016633;28;20030;-41
2021/06/19 06:27:28;;;;;;;8.50;4.72;;;24.30;69.00;;;;;;5015515;28;20084;-41
2021/06/19 06:29:53;;;;;;;7.35;4.20;;;24.40;69.00;;;;;;5016354;28;20057;-40
2021/06/19 06:32:19;;;;;;;7.80;4.95;;;24.40;69.20;;;;;;5015990;28;20030;-41
2021/06/19 06:34:45;;;;;;;9.68;4.43;;;24.40;69.20;;;;;;5015788;28;20060;-40
2021/06/19 06:37:10;;;;;;;13.23;4.53;;;24.40;69.20;;;;;;5015688;28;20029;-39
2021/06/19 06:39:36;;;;;;;13.60;8.73;;;24.40;69.30;;;;;;5015997;28;20026;-40
2021/06/19 06:42:02;;;;;;;8.32;4.85;;;24.50;69.10;;;;;;5025571;28;20101;-41
2021/06/19 06:44:29;;;;;;;9.07;5.10;;;24.50;68.90;;;;;;5030728;28;20064;-39
2021/06/19 06:46:55;;;;;;;11.18;7.55;;;24.60;68.30;;;;;;5015160;28;20037;-39
2021/06/19 06:49:20;;;;;;;9.70;6.80;;;24.60;68.70;;;;;;5015495;28;20030;-41
2021/06/19 06:51:46;;;;;;;7.28;4.95;;;24.60;68.90;;;;;;5015413;28;20045;-41
2021/06/19 06:54:14;;;;;;;9.60;6.05;;;24.60;68.90;;;;;;5015627;28;20414;-40
2021/06/19 06:56:39;;;;;;;14.98;6.30;;;24.70;68.70;;;;;;5015040;28;20464;-40
2021/06/19 06:59:05;;;;;;;8.70;4.97;;;24.70;68.30;;;;;;5015483;28;20018;-43
2021/06/19 07:01:31;;;;;;;12.70;7.82;;;24.70;68.60;;;;;;5030153;28;20057;-40
2021/06/19 07:03:58;;;;;;;10.90;6.57;;;24.80;68.50;;;;;;5015228;28;20030;-39
2021/06/19 07:06:25;;;;;;;10.05;5.68;;;24.80;68.60;;;;;;5015269;28;20044;-39
2021/06/19 07:08:52;;;;;;;11.65;7.00;;;24.80;68.30;;;;;;5015453;28;20030;-41
2021/06/19 07:11:21;;;;;;;12.20;7.63;;;24.90;68.20;;;;;;5015224;28;20096;-40
2021/06/19 07:13:47;;;;;;;15.10;9.68;;;24.90;67.90;;;;;;5015152;28;20034;-39
2021/06/19 07:16:12;;;;;;;29.73;21.58;;;24.90;68.00;;;;;;5015315;28;20362;-40
2021/06/19 07:18:38;;;;;;;23.20;17.30;;;25.00;67.70;;;;;;5014088;28;20026;-41
2021/06/19 07:21:04;;;;;;;15.57;11.40;;;25.00;67.80;;;;;;5015066;28;20057;-40
2021/06/19 07:23:30;;;;;;;12.90;8.30;;;25.00;67.70;;;;;;5014413;28;20057;-41
2021/06/19 07:25:56;;;;;;;13.65;8.43;;;25.00;67.70;;;;;;5015249;28;20084;-41
2021/06/19 07:28:22;;;;;;;9.60;5.50;;;25.00;67.70;;;;;;5014508;28;20080;-41
2021/06/19 07:30:48;;;;;;;10.57;6.50;;;25.00;67.70;;;;;;5018656;28;20113;-40
2021/06/19 07:33:14;;;;;;;11.50;5.10;;;25.10;68.10;;;;;;5018345;28;20034;-41
2021/06/19 07:35:40;;;;;;;8.00;4.70;;;25.10;67.90;;;;;;5018822;28;20118;-43
2021/06/19 07:38:06;;;;;;;8.30;6.72;;;25.10;68.10;;;;;;5018756;28;20053;-41
2021/06/19 07:40:32;;;;;;;13.48;6.82;;;25.20;67.80;;;;;;5018904;28;20314;-44
2021/06/19 07:42:59;;;;;;;12.60;7.63;;;25.20;67.70;;;;;;5018123;28;20022;-41
2021/06/19 07:45:25;;;;;;;8.65;4.30;;;25.30;67.80;;;;;;5019050;28;20046;-41
2021/06/19 07:47:50;;;;;;;11.60;7.05;;;25.30;67.60;;;;;;5018577;28;20092;-41
2021/06/19 07:50:16;;;;;;;12.35;6.65;;;25.40;67.70;;;;;;5019183;28;20038;-42
2021/06/19 07:52:43;;;;;;;9.15;4.50;;;25.40;67.30;;;;;;5018142;28;20034;-41
2021/06/19 07:55:09;;;;;;;8.23;4.20;;;25.40;66.70;;;;;;5018304;28;20034;-40
2021/06/19 07:57:35;;;;;;;10.68;4.20;;;25.50;66.90;;;;;;5017710;28;20426;-40
2021/06/19 08:00:01;;;;;;;13.50;5.72;;;25.50;66.80;;;;;;5018413;28;20105;-41
2021/06/19 08:02:26;;;;;;;17.73;6.25;;;25.60;66.90;;;;;;5018151;28;20105;-41
2021/06/19 08:04:52;;;;;;;7.20;4.40;;;25.60;67.20;;;;;;5018780;28;20421;-43
2021/06/19 08:07:18;;;;;;;5.95;3.55;;;25.70;67.60;;;;;;5018137;28;20030;-41
2021/06/19 08:09:45;;;;;;;6.50;4.20;;;25.70;67.70;;;;;;5018662;28;20030;-42
2021/06/19 08:12:10;;;;;;;6.43;5.07;;;25.70;67.20;;;;;;5018611;28;20034;-42
2021/06/19 08:14:36;;;;;;;7.82;4.10;;;25.80;67.20;;;;;;5034151;28;20041;-41
2021/06/19 08:17:35;;;;;;;8.73;4.13;;;25.90;67.30;;;;;;5018340;28;20030;-42
2021/06/19 08:19:54;;;;;;;10.73;6.20;;;25.90;67.60;;;;;;5018122;28;20312;-43
2021/06/19 08:22:20;;;;;;;11.88;8.27;;;26.00;67.80;;;;;;5017999;28;20036;-42
2021/06/19 08:24:48;;;;;;;9.70;5.35;;;26.00;67.30;;;;;;5018494;28;20033;-41
2021/06/19 08:27:15;;;;;;;6.07;4.70;;;26.10;67.50;;;;;;5017992;28;20061;-41
2021/06/19 08:29:41;;;;;;;10.25;5.53;;;26.10;67.70;;;;;;5018193;28;20034;-42
2021/06/19 08:32:08;;;;;;;16.45;6.10;;;26.20;66.80;;;;;;5018331;28;20361;-41
2021/06/19 08:34:35;;;;;;;10.93;5.35;;;26.20;66.90;;;;;;5018295;28;20022;-41
2021/06/19 08:37:01;;;;;;;10.13;4.75;;;26.30;66.90;;;;;;5017747;28;20088;-41
2021/06/19 08:39:26;;;;;;;9.80;4.80;;;26.30;66.80;;;;;;5018116;28;20066;-41
2021/06/19 08:41:56;;;;;;;8.98;6.32;;;26.40;66.70;;;;;;5017344;28;20490;-41
2021/06/19 08:44:23;;;;;;;;;;;26.50;66.60;;;;;;5018337;28;20109;-42
2021/06/19 08:46:51;;;;;;;12.57;8.80;;;26.60;66.90;;;;;;5017758;28;19922;-41
2021/06/19 08:49:18;;;;;;;10.93;6.80;;;26.60;66.50;;;;;;5017280;28;20034;-41
2021/06/19 08:51:44;;;;;;;18.02;9.45;;;26.70;66.30;;;;;;5017676;28;20030;-42
2021/06/19 08:54:10;;;;;;;10.80;6.28;;;26.80;66.00;;;;;;5017730;28;20029;-41
2021/06/19 08:56:36;;;;;;;11.77;8.85;;;26.90;65.80;;;;;;5017467;28;20466;-41
2021/06/19 08:59:02;;;;;;;10.35;6.47;;;27.00;65.40;;;;;;5017467;28;20026;-42
2021/06/19 09:01:28;;;;;;;10.55;5.95;;;27.00;65.00;;;;;;5017542;28;20053;-42
2021/06/19 09:03:53;;;;;;;8.55;5.10;;;27.10;64.90;;;;;;5017498;28;20030;-41
2021/06/19 09:06:27;;;;;;;16.83;5.03;;;27.20;64.80;;;;;;5017390;28;20042;-42
2021/06/19 09:09:11;;;;;;;8.55;4.78;;;27.30;64.70;;;;;;5017413;28;20038;-42
2021/06/19 09:11:47;;;;;;;6.53;4.68;;;27.30;64.80;;;;;;5032153;28;20037;-42
2021/06/19 09:14:18;;;;;;;8.93;6.28;;;27.40;64.30;;;;;;5017022;28;20041;-41
2021/06/19 09:16:55;;;;;;;9.38;5.70;;;27.40;64.00;;;;;;5017286;28;20048;-41
2021/06/19 09:19:38;;;;;;;7.93;6.20;;;27.50;64.10;;;;;;5017110;28;20436;-41
2021/06/19 09:22:18;;;;;;;11.57;7.63;;;27.50;64.60;;;;;;5016969;28;20049;-41
2021/06/19 09:24:50;;;;;;;14.13;8.85;;;27.60;64.60;;;;;;5017216;28;20015;-41
2021/06/19 09:27:45;;;;;;;10.27;6.03;;;27.70;64.60;;;;;;5016706;28;20030;-41
2021/06/19 09:30:13;;;;;;;16.33;8.70;;;27.70;64.60;;;;;;5010874;28;20050;-41
2021/06/19 09:32:54;;;;;;;13.63;6.68;;;27.80;64.50;;;;;;5016257;28;20044;-41
2021/06/19 09:35:33;;;;;;;9.48;6.53;;;27.90;63.70;;;;;;5016917;28;20112;-41
2021/06/19 09:38:08;;;;;;;13.38;6.72;;;27.90;63.50;;;;;;5016195;28;20053;-43
2021/06/19 09:40:42;;;;;;;16.23;6.03;;;27.90;63.40;;;;;;5016573;28;20061;-41
2021/06/19 09:43:10;;;;;;;11.43;5.55;;;28.00;63.00;;;;;;5015938;28;20026;-41
2021/06/19 09:45:37;;;;;;;9.32;4.90;;;28.00;62.90;;;;;;5017143;28;20033;-41
2021/06/19 09:48:03;;;;;;;9.27;5.88;;;28.10;62.40;;;;;;5016318;28;20042;-41
2021/06/19 09:50:29;;;;;;;12.68;5.88;;;28.10;63.00;;;;;;5017076;28;20421;-41
2021/06/19 09:52:55;;;;;;;8.77;5.80;;;28.20;62.80;;;;;;5015810;28;20034;-42
2021/06/19 09:55:21;;;;;;;9.43;5.15;;;28.20;62.90;;;;;;5016135;28;20112;-42
2021/06/19 09:57:48;;;;;;;14.95;5.82;;;28.20;62.80;;;;;;5016168;28;20034;-42
2021/06/19 10:00:19;;;;;;;11.90;4.75;;;28.30;62.70;;;;;;5016652;28;20321;-42
2021/06/19 10:02:46;;;;;;;8.85;4.68;;;28.30;62.70;;;;;;5015413;28;20414;-41
2021/06/19 10:05:12;;;;;;;5.78;3.70;;;28.30;62.70;;;;;;5016605;28;20112;-41
2021/06/19 10:07:38;;;;;;;7.32;3.92;;;28.30;62.70;;;;;;5016213;28;20049;-41
2021/06/19 10:10:06;;;;;;;12.43;5.63;;;28.30;62.50;;;;;;5016345;28;20330;-41
2021/06/19 10:12:33;;;;;;;12.00;4.03;;;28.30;62.10;;;;;;5015781;28;20389;-41
2021/06/19 10:15:00;;;;;;;7.25;4.53;;;28.20;61.70;;;;;;5016281;28;20065;-40
2021/06/19 10:17:33;;;;;;;9.43;4.90;;;28.20;61.40;;;;;;5015344;28;20034;-42
2021/06/19 10:20:01;;;;;;;17.83;10.68;;;28.10;61.10;;;;;;5016067;28;20513;-42
2021/06/19 10:22:32;;;;;;;19.17;11.57;;;28.10;61.20;;;;;;5015479;28;20053;-41
2021/06/19 10:25:02;;;;;;;9.05;6.72;;;28.10;61.00;;;;;;5016522;28;20328;-41
2021/06/19 10:27:30;;;;;;;19.83;14.02;;;28.20;60.90;;;;;;5015103;28;20338;-40
2021/06/19 10:30:00;;;;;;;20.05;11.02;;;28.30;61.20;;;;;;5015872;28;20057;-41
2021/06/19 10:32:39;;;;;;;;;;;28.40;60.50;;;;;;5015474;28;20030;-41
2021/06/19 10:35:05;;;;;;;9.05;5.15;;;28.40;60.80;;;;;;5016087;28;20272;-40
2021/06/19 10:37:31;;;;;;;8.30;4.38;;;28.40;60.00;;;;;;5014902;28;20041;-40
2021/06/19 10:40:13;;;;;;;12.10;5.68;;;28.50;59.50;;;;;;5016151;28;20314;-41
2021/06/19 10:42:39;;;;;;;9.00;3.33;;;28.50;59.10;;;;;;5015483;28;20319;-41
2021/06/19 10:45:30;;;;;;;7.90;3.17;;;28.50;58.10;;;;;;5015855;28;20037;-41
2021/06/19 10:48:04;;;;;;;6.18;4.35;;;28.50;58.00;;;;;;5009676;28;20052;-41
2021/06/19 10:50:30;;;;;;;14.18;5.05;;;28.50;58.60;;;;;;5015940;28;20040;-40
2021/06/19 10:53:03;;;;;;;7.97;4.07;;;28.60;58.40;;;;;;5014733;28;20418;-40
2021/06/19 10:55:29;;;;;;;15.90;4.78;;;28.70;58.20;;;;;;5015653;28;20033;-40
2021/06/19 10:58:15;;;;;;;6.53;5.15;;;28.80;57.80;;;;;;5014686;28;20453;-40
2021/06/19 11:00:47;;;;;;;12.38;3.45;;;28.80;57.40;;;;;;5015696;28;20288;-40
2021/06/19 11:03:14;;;;;;;10.85;4.70;;;28.90;56.90;;;;;;5014222;28;20033;-40
2021/06/19 11:05:43;;;;;;;13.27;3.60;;;28.80;56.40;;;;;;5015847;28;20030;-41
2021/06/19 11:08:10;;;;;;;9.55;4.05;;;28.90;56.50;;;;;;5015056;28;20034;-41
2021/06/19 11:10:46;;;;;;;11.93;6.15;;;28.90;56.70;;;;;;5010957;28;20026;-41
2021/06/19 11:13:30;;;;;;;7.28;4.05;;;28.90;56.70;;;;;;5014903;28;20312;-41
2021/06/19 11:15:57;;;;;;;17.55;4.53;;;29.00;56.70;;;;;;5015614;28;20038;-42
2021/06/19 11:19:01;;;;;;;9.90;3.03;;;29.00;56.80;;;;;;5015075;28;20034;-41
2021/06/19 11:21:32;;;;;;;13.70;3.53;;;29.10;57.10;;;;;;4973764;28;20039;-41
2021/06/19 11:24:04;;;;;;;11.90;6.47;;;29.20;56.30;;;;;;4973578;28;20419;-42
2021/06/19 11:29:42;;;;;;;9.25;3.25;;;29.40;57.60;;;;;;5014778;28;20445;-41
2021/06/19 11:32:32;;;;;;;9.35;5.88;;;29.50;56.10;;;;;;5015293;28;20410;-41
2021/06/19 11:34:59;;;;;;;11.73;2.83;;;29.70;56.70;;;;;;5014797;28;20034;-41
2021/06/19 11:37:58;;;;;;;9.02;4.38;;;29.90;55.80;;;;;;5014552;28;20034;-41
2021/06/19 11:40:31;;;;;;;4.93;3.85;;;30.00;55.90;;;;;;5015380;28;20033;-41
2021/06/19 11:42:57;;;;;;;7.93;2.72;;;30.20;55.80;;;;;;5014462;28;20038;-41
2021/06/19 11:45:23;;;;;;;14.07;5.40;;;30.40;55.10;;;;;;5014675;28;20045;-41
2021/06/19 11:48:03;;;;;;;7.10;3.00;;;30.50;55.10;;;;;;5014418;28;20670;-41
2021/06/19 11:50:32;;;;;;;7.22;2.75;;;30.70;54.80;;;;;;5014650;28;20112;-41
2021/06/19 11:53:28;;;;;;;12.32;3.15;;;30.90;54.70;;;;;;5014593;28;20050;-41
2021/06/19 11:56:11;;;;;;;5.70;2.65;;;31.20;54.70;;;;;;5014674;28;20068;-41
2021/06/19 11:58:45;;;;;;;10.60;3.38;;;31.40;53.60;;;;;;5013929;28;20125;-42
2021/06/19 12:01:13;;;;;;;6.57;2.70;;;31.60;52.60;;;;;;5015242;28;20336;-42
2021/06/19 12:03:39;;;;;;;12.23;4.45;;;31.70;52.30;;;;;;5014562;28;20033;-41
2021/06/19 12:06:05;;;;;;;11.68;3.22;;;31.90;52.20;;;;;;5030356;28;20121;-41
2021/06/19 12:08:31;;;;;;;18.05;3.72;;;31.90;51.80;;;;;;5014879;28;20097;-41
2021/06/19 12:10:57;;;;;;;10.32;2.70;;;31.80;51.30;;;;;;5014967;28;20102;-41
2021/06/19 12:13:49;;;;;;;6.63;2.40;;;31.70;50.50;;;;;;5014394;28;20474;-41
2021/06/19 12:16:15;;;;;;;8.38;3.08;;;31.50;50.30;;;;;;5014873;28;20322;-41
2021/06/19 12:18:41;;;;;;;15.80;3.10;;;31.40;50.90;;;;;;5017252;28;20026;-41
2021/06/19 12:21:12;;;;;;;9.80;3.60;;;31.20;50.90;;;;;;5018448;28;20050;-41
2021/06/19 12:23:43;;;;;;;10.52;3.25;;;31.00;52.10;;;;;;5018088;28;20087;-41
2021/06/19 12:26:14;;;;;;;13.75;3.40;;;30.80;53.70;;;;;;5018579;28;20406;-41
2021/06/19 12:28:48;;;;;;;10.18;3.10;;;30.60;54.90;;;;;;5017732;28;20042;-41
2021/06/19 12:31:15;;;;;;;10.98;3.03;;;30.40;55.30;;;;;;5018540;28;20038;-41
2021/06/19 12:33:42;;;;;;;4.55;2.05;;;30.10;55.60;;;;;;5017790;28;20148;-42
2021/06/19 12:36:09;;;;;;;9.00;3.30;;;29.90;55.50;;;;;;5018671;28;20115;-41
2021/06/19 12:38:35;;;;;;;6.57;4.07;;;29.60;55.90;;;;;;5018158;28;20026;-42
2021/06/19 12:41:04;;;;;;;13.18;8.32;;;29.30;56.40;;;;;;5018321;28;20026;-43
2021/06/19 12:43:30;;;;;;;8.38;4.63;;;29.10;56.20;;;;;;5017877;28;20026;-43
2021/06/19 12:45:56;;;;;;;9.10;3.35;;;28.90;56.30;;;;;;5017949;28;20152;-45
2021/06/19 12:48:32;;;;;;;6.88;3.40;;;28.70;56.00;;;;;;5017980;28;20433;-43
2021/06/19 12:51:00;;;;;;;9.15;3.58;;;28.60;56.30;;;;;;5017881;28;20454;-42